Language selection

My Weather Profile Weather Topics  | 

Atlantic - Newfoundland: Past 24 Hour Conditions

 

West Chedabucto Bay - 44489

08:00 AM ADT 06 October 2022Buoy position: 45.49N 61.14W
Disclaimer

This table is a summary of hourly weather conditions for the past 24 hours.
Please note that these observations might not always be representative of weather conditions over their associated marine area.

Date / Time
(ADT)
Wind(knots) Wave height(m) Wave period(s) Pressure(kPa) Air tempC) Water tempC)
06 October 2022
8:00 ENE 10 gust 12 0.7 4.7 101.3 13 15
7:00 ENE 10 gust 13 0.7 4.6 101.3 13 15
6:00 ENE 11 gust 14 0.6 4.8 101.3 13 15
5:00 ENE 10 gust 12 0.6 4.5 101.4 12 15
4:00 NE 10 gust 12 0.6 4.3 101.4 13 15
3:00 ENE 13 gust 16 0.6 4.3 101.5 13 15
2:00 ENE 12 gust 15 0.5 4.3 101.5 13 15
1:00 ENE 11 gust 13 0.5 4.0 101.6 13 15
0:00 ENE 11 gust 13 0.6 4.0 101.6 13 15
05 October 2022
23:00 E 11 gust 13 0.6 3.9 101.7 13 15
22:00 E 11 gust 13 0.5 3.7 101.7 14 15
21:00 E 11 gust 14 0.6 3.8 101.8 14 15
20:00 E 11 gust 14 0.5 3.6 101.8 14 15
19:00 ESE 14 gust 17 0.5 3.4 101.8 14 14
18:00 ESE 14 gust 17 0.5 3.4 101.8 14 14
17:00 ESE 13 gust 15 0.4 3.3 101.9 14 15
16:00 ESE 11 gust 12 0.4 3.7 101.8 14 15
15:00 ESE 13 gust 15 0.3 3.0 101.9 14 15
14:00 ESE 10 gust 11 0.3 3.4 102.0 14 15
13:00 ESE 11 gust 13 0.3 3.2 101.9 14 15
12:00 ESE 9 gust 10 0.3 4.1 102.0 14 14
11:00 ESE 6 gust 8 0.2 4.6 102.1 14 14
10:00 ESE 4 gust 5 0.2 4.3 102.1 14 14
9:00 E 5 gust 6 0.2 5.0 102.1 13 14
8:00 NE 4 gust 5 0.2 4.7 102.1 12 14

Zoom-in to make a selection

Map of Atlantic - Newfoundland marine weather areas Banquereau - 44139 East Chedabucto Bay - 44488 West Chedabucto Bay - 44489 Blanc-Sablon Airport Cap Whittle Chevery Natashquan Airport Heath Point Îles de la Madeleine Airport Miscou Island Eskasoni (First Nations) Grand Étang Ingonish Beach North Mountain St.Paul Island J.A. Douglas McCurdy Sydney Airport Charlottetown Airport East Point North Cape Argentia Berry Hill Bonavista Burgeo Cape Race Corner Brook Daniel's Harbour Englee Ferolle Point La Scie Port aux Basques Sagona Island St. Anthony Airport St. John's Int'l Airport St. Lawrence Stephenville Airport Twillingate Winterland Branch Hill Wreckhouse Grates Cove Pool's Island Marticot Island Long Pond Cartwright Airport Mary's Harbour
Legend:
buoy Buoy
land station Land Station

Atlantic - Newfoundland Area

Another Region

What we are doing

Date modified: